createdAt,value
2023-01-08T00:00:57.339Z,4.40
2023-01-08T00:04:21.933Z,4.67
2023-01-08T00:07:45.697Z,4.73
2023-01-08T00:11:10.084Z,4.80
2023-01-08T00:14:34.087Z,4.17
2023-01-08T00:17:59.387Z,5.20
2023-01-08T00:21:24.718Z,4.10
2023-01-08T00:24:49.070Z,4.50
2023-01-08T00:28:14.934Z,4.43
2023-01-08T00:31:42.278Z,4.97
2023-01-08T00:35:08.234Z,4.40
2023-01-08T00:38:31.779Z,4.60
2023-01-08T00:41:56.089Z,4.50
2023-01-08T00:45:24.742Z,4.70
2023-01-08T00:48:49.133Z,4.40
2023-01-08T00:52:14.983Z,5.00
2023-01-08T00:55:47.666Z,4.57
2023-01-08T00:59:12.098Z,7.50
2023-01-08T01:02:36.383Z,4.00
2023-01-08T01:06:03.245Z,4.13
2023-01-08T01:09:28.554Z,4.27
2023-01-08T01:12:53.091Z,4.10
2023-01-08T01:16:17.831Z,4.17
2023-01-08T01:19:42.242Z,4.63
2023-01-08T01:23:06.093Z,4.80
2023-01-08T01:26:32.280Z,4.33
2023-01-08T01:29:56.094Z,4.00
2023-01-08T01:33:23.122Z,4.70
2023-01-08T01:36:47.132Z,4.77
2023-01-08T01:40:12.026Z,3.90
2023-01-08T01:43:42.335Z,3.80
2023-01-08T01:47:12.140Z,3.87
2023-01-08T01:50:41.030Z,3.87
2023-01-08T01:54:09.076Z,3.43
2023-01-08T01:57:34.622Z,4.03
2023-01-08T02:01:07.551Z,4.27
2023-01-08T02:04:33.213Z,4.30
2023-01-08T02:08:04.353Z,4.23
2023-01-08T02:11:38.995Z,4.27
2023-01-08T02:15:11.425Z,3.90
2023-01-08T02:18:46.056Z,3.50
2023-01-08T02:22:23.059Z,4.07
2023-01-08T02:26:13.953Z,3.53
2023-01-08T02:29:38.215Z,4.17
2023-01-08T02:33:02.236Z,4.30
2023-01-08T02:36:35.366Z,3.83
2023-01-08T02:40:21.140Z,3.80
2023-01-08T02:43:49.147Z,4.10
2023-01-08T02:47:18.925Z,4.37
2023-01-08T02:50:47.807Z,3.80
2023-01-08T02:54:15.787Z,3.70
2023-01-08T02:57:39.928Z,3.97
2023-01-08T03:01:08.246Z,4.07
2023-01-08T03:04:38.948Z,4.60
2023-01-08T03:08:03.272Z,3.87
2023-01-08T03:11:34.899Z,3.50
2023-01-08T03:15:02.915Z,3.57
2023-01-08T03:18:34.064Z,3.30
2023-01-08T03:21:59.003Z,3.37
2023-01-08T03:25:26.006Z,3.50
2023-01-08T03:28:53.767Z,3.17
2023-01-08T03:32:20.998Z,4.60
2023-01-08T03:35:51.161Z,4.00
2023-01-08T03:39:18.412Z,3.60
2023-01-08T03:42:42.404Z,3.47
2023-01-08T03:46:10.263Z,3.80
2023-01-08T03:49:36.431Z,3.20
2023-01-08T03:53:01.388Z,3.47
2023-01-08T03:56:25.846Z,3.27
2023-01-08T03:59:52.518Z,3.37
2023-01-08T04:03:16.293Z,3.20
2023-01-08T04:06:40.749Z,3.33
2023-01-08T04:10:06.480Z,3.47
2023-01-08T04:13:30.274Z,3.30
2023-01-08T04:16:53.783Z,3.80
2023-01-08T04:20:18.383Z,3.70
2023-01-08T04:23:42.339Z,3.00
2023-01-08T04:27:07.865Z,3.50
2023-01-08T04:30:32.379Z,3.60
2023-01-08T04:33:56.289Z,2.80
2023-01-08T04:37:20.353Z,3.73
2023-01-08T04:40:44.586Z,3.00
2023-01-08T04:44:10.154Z,2.83
2023-01-08T04:47:33.848Z,3.20
2023-01-08T04:51:00.072Z,3.80
2023-01-08T04:54:23.600Z,3.20
2023-01-08T04:57:47.356Z,3.50
2023-01-08T05:01:17.196Z,3.43
2023-01-08T05:04:40.775Z,3.23
2023-01-08T05:08:06.903Z,3.47
2023-01-08T05:11:31.417Z,3.00
2023-01-08T05:14:55.353Z,3.40
2023-01-08T05:18:20.705Z,3.73
2023-01-08T05:21:44.441Z,3.60
2023-01-08T05:25:09.313Z,3.77
2023-01-08T05:28:34.317Z,3.03
2023-01-08T05:32:00.257Z,3.30
2023-01-08T05:35:25.811Z,2.77
2023-01-08T05:38:49.461Z,3.50
2023-01-08T05:42:13.401Z,2.60
2023-01-08T05:45:37.526Z,3.27
2023-01-08T05:49:03.559Z,3.00
2023-01-08T05:52:29.132Z,2.87
2023-01-08T05:55:53.445Z,3.17
2023-01-08T05:59:17.509Z,2.70
2023-01-08T06:02:41.716Z,2.27
2023-01-08T06:06:07.472Z,3.40
2023-01-08T06:09:32.413Z,2.70
2023-01-08T06:12:58.875Z,2.53
2023-01-08T06:16:22.615Z,2.60
2023-01-08T06:19:48.194Z,1.73
2023-01-08T06:23:11.855Z,3.70
2023-01-08T06:26:36.841Z,2.47
2023-01-08T06:30:00.496Z,2.37
2023-01-08T06:33:26.827Z,2.00
2023-01-08T06:36:51.234Z,1.73
2023-01-08T06:40:15.628Z,1.70
2023-01-08T06:43:43.351Z,1.80
2023-01-08T06:47:07.597Z,1.47
2023-01-08T06:50:31.880Z,1.97
2023-01-08T06:53:56.476Z,2.00
2023-01-08T06:57:20.635Z,2.00
2023-01-08T07:00:46.280Z,1.90
2023-01-08T07:04:10.445Z,1.70
2023-01-08T07:07:42.277Z,1.93
2023-01-08T07:11:06.636Z,2.00
2023-01-08T07:14:30.528Z,2.50
2023-01-08T07:17:58.129Z,1.60
2023-01-08T07:21:22.551Z,1.93
2023-01-08T07:24:46.555Z,1.60
2023-01-08T07:28:13.650Z,2.10
2023-01-08T07:31:37.331Z,2.33
2023-01-08T07:35:02.309Z,1.87
2023-01-08T07:38:26.040Z,1.90
2023-01-08T07:41:49.576Z,2.10
2023-01-08T07:45:13.902Z,2.27
2023-01-08T07:48:37.409Z,1.93
2023-01-08T07:52:02.423Z,2.00
2023-01-08T07:55:26.084Z,2.07
2023-01-08T07:58:49.700Z,2.20
2023-01-08T08:02:13.801Z,1.90
2023-01-08T08:05:37.532Z,1.97
2023-01-08T08:09:03.647Z,2.40
2023-01-08T08:12:27.163Z,2.10
2023-01-08T08:15:51.531Z,2.23
2023-01-08T08:19:15.950Z,2.20
2023-01-08T08:22:39.521Z,2.20
2023-01-08T08:26:05.986Z,2.23
2023-01-08T08:29:29.635Z,2.20
2023-01-08T08:32:53.280Z,2.40
2023-01-08T08:36:16.921Z,2.27
2023-01-08T08:39:40.565Z,2.17
2023-01-08T08:43:05.864Z,2.50
2023-01-08T08:46:30.370Z,2.27
2023-01-08T08:49:53.896Z,2.40
2023-01-08T08:53:17.474Z,2.60
2023-01-08T08:56:41.122Z,2.00
2023-01-08T09:00:07.375Z,2.40
2023-01-08T09:03:32.975Z,2.30
2023-01-08T09:06:56.537Z,2.30
2023-01-08T09:10:20.060Z,2.00
2023-01-08T09:13:43.608Z,2.03
2023-01-08T09:17:08.660Z,2.27
2023-01-08T09:20:32.456Z,2.17
2023-01-08T09:23:55.997Z,2.10
2023-01-08T09:27:19.470Z,2.20
2023-01-08T09:30:42.961Z,2.13
2023-01-08T09:34:07.932Z,2.00
2023-01-08T09:37:31.683Z,3.00
2023-01-08T09:41:00.831Z,2.80
2023-01-08T09:44:27.942Z,2.97
2023-01-08T09:47:51.738Z,3.23
2023-01-08T09:51:19.231Z,2.83
2023-01-08T09:54:43.137Z,2.20
2023-01-08T09:58:12.991Z,3.00
2023-01-08T10:01:41.058Z,2.30
2023-01-08T10:05:13.881Z,2.53
2023-01-08T10:08:39.260Z,2.63
2023-01-08T10:12:06.009Z,2.50
2023-01-08T10:15:31.224Z,2.93
2023-01-08T10:18:54.786Z,3.00
2023-01-08T10:22:21.630Z,4.50
2023-01-08T10:25:54.197Z,2.13
2023-01-08T10:29:20.147Z,2.43
2023-01-08T10:32:49.199Z,2.40
2023-01-08T10:36:15.746Z,2.70
2023-01-08T10:39:39.507Z,2.60
2023-01-08T10:43:12.427Z,3.33
2023-01-08T10:46:42.241Z,3.30
2023-01-08T10:50:17.204Z,2.70
2023-01-08T10:53:41.548Z,3.47
2023-01-08T10:57:20.030Z,3.47
2023-01-08T11:00:47.425Z,2.97
2023-01-08T11:04:24.152Z,2.63
2023-01-08T11:07:55.929Z,3.40
2023-01-08T11:11:20.116Z,3.00
2023-01-08T11:14:47.568Z,3.37
2023-01-08T11:18:20.483Z,3.90
2023-01-08T11:21:55.223Z,3.77
2023-01-08T11:25:26.806Z,3.60
2023-01-08T11:28:57.094Z,3.50
2023-01-08T11:32:31.230Z,3.10
2023-01-08T11:36:02.944Z,4.20
2023-01-08T11:39:27.286Z,3.70
2023-01-08T11:43:09.353Z,3.60
2023-01-08T11:46:40.195Z,4.40
2023-01-08T11:50:14.148Z,3.67
2023-01-08T11:53:44.633Z,3.40
2023-01-08T11:57:18.591Z,4.20
2023-01-08T12:00:58.014Z,3.20
2023-01-08T12:04:35.188Z,3.70
2023-01-08T12:08:05.491Z,3.50
2023-01-08T12:11:33.820Z,4.30
2023-01-08T12:15:08.465Z,4.23
2023-01-08T12:18:56.635Z,3.57
2023-01-08T12:22:32.632Z,4.10
2023-01-08T12:26:11.146Z,3.90
2023-01-08T12:30:01.471Z,3.70
2023-01-08T12:33:44.934Z,3.40
2023-01-08T12:37:15.900Z,3.80
2023-01-08T12:40:43.442Z,3.70
2023-01-08T12:44:14.272Z,3.63
2023-01-08T12:47:41.095Z,3.63
2023-01-08T12:51:10.863Z,4.13
2023-01-08T12:54:40.562Z,3.13
2023-01-08T12:58:15.754Z,3.40
2023-01-08T13:01:46.746Z,3.77
2023-01-08T13:05:30.835Z,3.73
2023-01-08T13:08:57.083Z,3.13
2023-01-08T13:12:31.558Z,3.50
2023-01-08T13:16:06.068Z,3.67
2023-01-08T13:19:34.687Z,3.40
2023-01-08T13:23:06.392Z,3.93
2023-01-08T13:26:31.725Z,3.53
2023-01-08T13:29:57.802Z,3.53
2023-01-08T13:33:27.751Z,3.40
2023-01-08T13:36:58.608Z,4.17
2023-01-08T13:40:42.845Z,3.77
2023-01-08T13:44:15.380Z,3.03
2023-01-08T13:47:44.374Z,2.80
2023-01-08T13:51:25.972Z,3.60
2023-01-08T13:54:49.890Z,3.60
2023-01-08T13:58:18.850Z,2.70
2023-01-08T14:01:53.405Z,2.80
2023-01-08T14:05:30.358Z,2.77
2023-01-08T14:08:58.455Z,3.20
2023-01-08T14:12:23.816Z,2.70
2023-01-08T14:15:49.241Z,3.30
2023-01-08T14:19:16.769Z,2.60
2023-01-08T14:22:43.001Z,3.03
2023-01-08T14:26:10.367Z,3.27
2023-01-08T14:29:36.506Z,2.80
2023-01-08T14:33:02.520Z,3.00
2023-01-08T14:36:27.042Z,3.33
2023-01-08T14:39:54.332Z,3.10
2023-01-08T14:43:20.705Z,3.43
2023-01-08T14:46:46.303Z,3.13
2023-01-08T14:50:21.236Z,2.87
2023-01-08T14:53:46.641Z,2.70
2023-01-08T14:57:13.559Z,3.17
2023-01-08T15:00:39.142Z,3.10
2023-01-08T15:04:07.694Z,3.67
2023-01-08T15:07:32.568Z,3.70
2023-01-08T15:10:59.776Z,2.97
2023-01-08T15:14:25.444Z,3.03
2023-01-08T15:17:48.990Z,3.07
2023-01-08T15:21:18.735Z,3.37
2023-01-08T15:24:52.822Z,3.43
2023-01-08T15:28:16.846Z,3.20
2023-01-08T15:31:48.363Z,3.00
2023-01-08T15:35:15.926Z,3.27
2023-01-08T15:38:39.802Z,3.07
2023-01-08T15:42:36.101Z,3.53
2023-01-08T15:45:59.701Z,3.13
2023-01-08T15:49:23.349Z,2.90
2023-01-08T15:52:47.250Z,3.47
2023-01-08T15:56:10.881Z,3.40
2023-01-08T15:59:37.717Z,4.23
2023-01-08T16:03:01.278Z,3.40
2023-01-08T16:06:24.895Z,3.23
2023-01-08T16:09:48.501Z,3.00
2023-01-08T16:13:12.430Z,3.13
2023-01-08T16:16:37.446Z,2.90
2023-01-08T16:20:01.045Z,2.77
2023-01-08T16:23:24.637Z,2.73
2023-01-08T16:26:48.285Z,3.33
2023-01-08T16:30:14.599Z,3.03
2023-01-08T16:33:39.634Z,3.50
2023-01-08T16:37:03.208Z,3.00
2023-01-08T16:40:26.994Z,2.77
2023-01-08T16:43:50.601Z,3.17
2023-01-08T16:47:14.142Z,3.00
2023-01-08T16:50:39.178Z,2.80
2023-01-08T16:54:02.746Z,3.00
2023-01-08T16:57:26.332Z,3.10
2023-01-08T17:00:50.051Z,3.57
2023-01-08T17:04:13.735Z,2.60
2023-01-08T17:07:38.580Z,2.87
2023-01-08T17:11:07.012Z,2.53
2023-01-08T17:14:30.620Z,2.93
2023-01-08T17:17:54.123Z,2.37
2023-01-08T17:21:18.186Z,2.63
2023-01-08T17:24:43.117Z,2.80
2023-01-08T17:28:06.808Z,2.30
2023-01-08T17:31:30.588Z,2.97
2023-01-08T17:34:54.597Z,2.90
2023-01-08T17:38:18.149Z,2.60
2023-01-08T17:42:00.267Z,2.73
2023-01-08T17:45:23.990Z,3.30
2023-01-08T17:48:47.640Z,2.83
2023-01-08T17:52:11.151Z,2.67
2023-01-08T17:55:34.873Z,3.23
2023-01-08T17:58:59.865Z,3.17
2023-01-08T18:02:25.676Z,3.07
2023-01-08T18:05:49.343Z,2.67
2023-01-08T18:09:13.189Z,2.83
2023-01-08T18:12:36.787Z,2.83
2023-01-08T18:16:04.551Z,3.20
2023-01-08T18:19:28.322Z,2.60
2023-01-08T18:22:56.079Z,2.90
2023-01-08T18:26:21.585Z,3.00
2023-01-08T18:29:45.107Z,3.30
2023-01-08T18:33:10.295Z,2.90
2023-01-08T18:36:34.070Z,2.70
2023-01-08T18:39:57.677Z,2.80
2023-01-08T18:43:21.337Z,2.60
2023-01-08T18:46:46.741Z,2.63
2023-01-08T18:50:13.329Z,3.07
2023-01-08T18:53:36.900Z,2.80
2023-01-08T18:57:00.519Z,3.07
2023-01-08T19:00:26.147Z,3.07
2023-01-08T19:03:49.663Z,3.27
2023-01-08T19:07:15.166Z,3.27
2023-01-08T19:10:41.272Z,2.70
2023-01-08T19:14:06.220Z,3.10
2023-01-08T19:17:31.974Z,2.73
2023-01-08T19:20:56.891Z,2.93
2023-01-08T19:24:22.823Z,2.97
2023-01-08T19:27:46.721Z,2.93
2023-01-08T19:31:12.647Z,2.57
2023-01-08T19:34:36.320Z,2.63
2023-01-08T19:37:59.943Z,3.30
2023-01-08T19:41:42.080Z,2.70
2023-01-08T19:45:06.747Z,3.80
2023-01-08T19:48:30.283Z,3.17
2023-01-08T19:51:53.827Z,2.93
2023-01-08T19:55:19.113Z,3.03
2023-01-08T19:58:44.202Z,3.47
2023-01-08T20:02:09.152Z,3.43
2023-01-08T20:05:32.792Z,2.90
2023-01-08T20:08:59.194Z,3.40
2023-01-08T20:12:22.789Z,3.50
2023-01-08T20:15:56.607Z,3.30
2023-01-08T20:19:21.966Z,3.60
2023-01-08T20:22:45.462Z,3.70
2023-01-08T20:26:12.268Z,3.10
2023-01-08T20:29:35.859Z,3.30
2023-01-08T20:33:00.987Z,3.33
2023-01-08T20:36:27.604Z,3.20
2023-01-08T20:39:51.590Z,3.73
2023-01-08T20:43:15.107Z,3.50
2023-01-08T20:46:39.569Z,3.40
2023-01-08T20:50:12.308Z,3.93
2023-01-08T20:53:42.976Z,4.20
2023-01-08T20:57:06.541Z,3.83
2023-01-08T21:00:30.477Z,3.70
2023-01-08T21:03:56.299Z,3.30
2023-01-08T21:07:21.260Z,3.10
2023-01-08T21:10:46.033Z,3.53
2023-01-08T21:14:09.876Z,3.10
2023-01-08T21:17:33.687Z,3.07
2023-01-08T21:20:59.947Z,3.80
2023-01-08T21:24:24.784Z,3.60
2023-01-08T21:27:48.267Z,2.80
2023-01-08T21:31:13.676Z,3.00
2023-01-08T21:34:37.302Z,3.37
2023-01-08T21:38:00.812Z,3.80
2023-01-08T21:41:45.343Z,3.47
2023-01-08T21:45:29.328Z,3.43
2023-01-08T21:48:52.941Z,3.90
2023-01-08T21:52:34.393Z,3.80
2023-01-08T21:55:58.987Z,3.73
2023-01-08T21:59:24.001Z,3.70
2023-01-08T22:02:48.804Z,3.07
2023-01-08T22:06:12.498Z,3.40
2023-01-08T22:09:36.330Z,4.20
2023-01-08T22:12:59.839Z,3.20
2023-01-08T22:16:24.771Z,3.23
2023-01-08T22:19:48.333Z,3.03
2023-01-08T22:23:11.901Z,3.00
2023-01-08T22:26:36.685Z,2.80
2023-01-08T22:30:00.607Z,3.20
2023-01-08T22:33:25.510Z,3.03
2023-01-08T22:36:51.815Z,3.17
2023-01-08T22:40:15.442Z,3.13
2023-01-08T22:43:39.035Z,3.30
2023-01-08T22:47:02.742Z,3.60
2023-01-08T22:50:27.748Z,3.43
2023-01-08T22:53:51.626Z,3.20
2023-01-08T22:57:15.144Z,3.87
2023-01-08T23:00:38.967Z,3.33
2023-01-08T23:04:03.408Z,2.63
2023-01-08T23:07:28.367Z,3.20
2023-01-08T23:10:57.084Z,3.27
2023-01-08T23:14:20.653Z,2.90
2023-01-08T23:17:52.135Z,3.23
2023-01-08T23:21:18.329Z,3.67
2023-01-08T23:24:43.233Z,3.53
2023-01-08T23:28:06.909Z,3.60
2023-01-08T23:31:32.306Z,3.53
2023-01-08T23:34:56.207Z,3.93
2023-01-08T23:38:19.789Z,3.20
2023-01-08T23:41:44.723Z,3.00
2023-01-08T23:45:11.234Z,3.27
2023-01-08T23:48:35.025Z,3.50
2023-01-08T23:51:58.571Z,3.30
2023-01-08T23:55:22.309Z,3.53
2023-01-08T23:58:47.611Z,3.40
